Time;durP1;ratioP1;P1;durP2;ratioP2;P2;SDS_P1;SDS_P2;PMS_P1;PMS_P2;Temp;Humidity;BMP_temperature;BMP_pressure;BME280_temperature;BME280_humidity;BME280_pressure;Samples;Min_cycle;Max_cycle;Signal;HPM_P1;HPM_P2
2022/01/31 00:00:16;;;;;;;;;;;5.50;1.00;;;;;;5044362;28;19909;-81
2022/01/31 00:02:43;;;;;;;;;;;5.50;1.00;;;;;;5038603;28;19948;-80
2022/01/31 00:05:09;;;;;;;;;;;5.50;1.00;;;;;;5032503;28;19936;-80
2022/01/31 00:07:34;;;;;;;;;;;5.40;1.00;;;;;;5030212;28;19917;-80
2022/01/31 00:10:05;;;;;;;;;;;5.40;1.00;;;;;;5055267;28;19913;-80
2022/01/31 00:12:34;;;;;;;;;;;5.40;1.00;;;;;;5036970;28;19952;-81
2022/01/31 00:15:03;;;;;;;;;;;5.40;1.00;;;;;;5029831;28;19917;-82
2022/01/31 00:17:28;;;;;;;;;;;5.40;1.00;;;;;;5022737;28;19921;-81
2022/01/31 00:19:53;;;;;;;;;;;5.40;1.00;;;;;;5030057;28;19909;-81
2022/01/31 00:22:19;;;;;;;;;;;5.30;1.00;;;;;;5030900;28;19913;-81
2022/01/31 00:24:44;;;;;;;;;;;5.30;1.00;;;;;;5046511;28;19913;-81
2022/01/31 00:27:10;;;;;;;;;;;5.30;1.00;;;;;;5039221;28;19936;-81
2022/01/31 00:29:36;;;;;;;;;;;5.30;1.00;;;;;;5032212;28;19913;-81
2022/01/31 00:32:01;;;;;;;;;;;5.40;1.00;;;;;;5037062;28;20012;-81
2022/01/31 00:34:27;;;;;;;;;;;5.40;1.00;;;;;;5039518;28;19965;-81
2022/01/31 00:36:54;;;;;;;;;;;5.40;1.00;;;;;;5037651;28;20270;-81
2022/01/31 00:39:20;;;;;;;;;;;5.50;1.00;;;;;;5037665;28;19936;-81
2022/01/31 00:41:45;;;;;;;;;;;5.50;1.00;;;;;;5031948;28;19914;-81
2022/01/31 00:44:38;;;;;;;;;;;5.50;1.00;;;;;;5036657;28;19924;-81
2022/01/31 00:47:15;;;;;;;;;;;5.50;1.00;;;;;;5036842;28;19917;-81
2022/01/31 00:49:48;;;;;;;;;;;5.50;1.00;;;;;;5030210;28;19913;-81
2022/01/31 00:52:13;;;;;;;;;;;5.60;1.00;;;;;;5033194;28;19989;-81
2022/01/31 00:54:39;;;;;;;;;;;5.60;1.00;;;;;;5027786;28;19964;-81
2022/01/31 00:57:04;;;;;;;;;;;5.60;1.00;;;;;;5035451;28;20429;-81
2022/01/31 00:59:30;;;;;;;;;;;5.70;1.00;;;;;;5033808;28;19913;-81
2022/01/31 01:01:55;;;;;;;;;;;5.70;1.00;;;;;;5036556;28;20266;-81
2022/01/31 01:04:20;;;;;;;;;;;5.70;1.00;;;;;;5038924;28;19960;-81
2022/01/31 01:06:46;;;;;;;;;;;5.70;1.00;;;;;;5040384;28;20016;-82
2022/01/31 01:09:11;;;;;;;;;;;5.70;1.00;;;;;;5040893;28;20358;-82
2022/01/31 01:11:37;;;;;;;;;;;5.70;1.00;;;;;;5035080;28;20138;-81
2022/01/31 01:14:02;;;;;;;;;;;5.70;1.00;;;;;;5033958;28;19913;-81
2022/01/31 01:16:28;;;;;;;;;;;5.70;1.00;;;;;;5041777;28;20039;-82
2022/01/31 01:18:53;;;;;;;;;;;5.70;1.00;;;;;;5037553;28;20588;-81
2022/01/31 01:21:19;;;;;;;;;;;5.70;1.00;;;;;;5040138;28;19963;-82
2022/01/31 01:23:44;;;;;;;;;;;5.70;1.00;;;;;;5040052;28;20363;-82
2022/01/31 01:26:10;;;;;;;;;;;5.70;1.00;;;;;;5039323;28;19914;-81
2022/01/31 01:28:35;;;;;;;;;;;5.70;1.00;;;;;;5037817;28;19920;-82
2022/01/31 01:31:01;;;;;;;;;;;5.70;1.00;;;;;;5042304;28;19913;-81
2022/01/31 01:33:26;;;;;;;;;;;5.70;1.00;;;;;;5044257;28;19974;-81
2022/01/31 01:35:53;;;;;;;;;;;5.70;1.00;;;;;;5042869;28;19915;-83
2022/01/31 01:38:19;;;;;;;;;;;5.70;1.00;;;;;;5044176;28;19952;-82
2022/01/31 01:40:46;;;;;;;;;;;5.70;1.00;;;;;;5036939;28;20361;-82
2022/01/31 01:43:12;;;;;;;;;;;5.70;1.00;;;;;;5043247;28;19972;-81
2022/01/31 01:45:39;;;;;;;;;;;5.70;1.00;;;;;;5047350;28;20444;-82
2022/01/31 01:48:06;;;;;;;;;;;5.70;1.00;;;;;;5043303;28;20423;-81
2022/01/31 01:50:32;;;;;;;;;;;5.70;1.00;;;;;;5058968;28;19968;-81
2022/01/31 01:52:59;;;;;;;;;;;5.70;1.00;;;;;;5045652;28;20262;-81
2022/01/31 01:55:24;;;;;;;;;;;5.70;1.00;;;;;;5038501;28;19944;-81
2022/01/31 01:57:50;;;;;;;;;;;5.70;99.90;;;;;;5042556;28;19916;-82
2022/01/31 02:00:18;;;;;;;;;;;5.70;99.90;;;;;;5042660;28;19941;-81
2022/01/31 02:02:45;;;;;;;;;;;5.60;99.90;;;;;;5042393;28;19968;-82
2022/01/31 02:05:10;;;;;;;;;;;5.60;99.90;;;;;;5042058;28;20340;-82
2022/01/31 02:07:36;;;;;;;;;;;5.60;99.90;;;;;;5042532;28;19936;-82
2022/01/31 02:10:04;;;;;;;;;;;5.60;99.90;;;;;;5040888;28;19967;-83
2022/01/31 02:12:40;;;;;;;;;;;5.70;99.90;;;;;;5045867;28;19921;-82
2022/01/31 02:15:07;;;;;;;;;;;5.70;1.00;;;;;;5050998;28;19909;-82
2022/01/31 02:17:33;;;;;;;;;;;5.70;1.00;;;;;;5040013;28;19913;-82
2022/01/31 02:19:59;;;;;;;;;;;5.70;23.80;;;;;;5040168;28;19959;-82
2022/01/31 02:22:24;;;;;;;;;;;5.70;99.90;;;;;;5039083;28;20376;-82
2022/01/31 02:24:50;;;;;;;;;;;5.70;1.00;;;;;;5033958;28;19952;-82
2022/01/31 02:27:22;;;;;;;;;;;5.60;99.90;;;;;;5038231;28;19909;-82
2022/01/31 02:29:47;;;;;;;;;;;5.60;99.90;;;;;;5038676;28;19913;-80
2022/01/31 02:32:14;;;;;;;;;;;5.50;99.90;;;;;;5031002;28;20011;-81
2022/01/31 02:34:40;;;;;;;;;;;5.50;1.00;;;;;;5033968;28;20389;-82
2022/01/31 02:37:08;;;;;;;;;;;5.40;54.90;;;;;;5038879;28;20004;-82
2022/01/31 02:39:34;;;;;;;;;;;5.40;99.90;;;;;;5049891;28;19924;-82
2022/01/31 02:41:59;;;;;;;;;;;5.40;99.90;;;;;;5038765;28;20292;-81
2022/01/31 02:44:25;;;;;;;;;;;5.30;99.90;;;;;;5038166;28;19913;-82
2022/01/31 02:46:53;;;;;;;;;;;5.20;99.90;;;;;;5040483;28;19951;-82
2022/01/31 02:49:22;;;;;;;;;;;5.20;99.90;;;;;;5039040;28;19921;-82
2022/01/31 02:51:54;;;;;;;;;;;5.20;99.90;;;;;;5026866;28;20501;-81
2022/01/31 02:54:19;;;;;;;;;;;5.10;1.00;;;;;;5038258;28;19924;-82
2022/01/31 02:56:45;;;;;;;;;;;5.10;1.00;;;;;;5040739;28;20297;-81
2022/01/31 02:59:10;;;;;;;;;;;5.10;1.00;;;;;;5037244;28;19925;-82
2022/01/31 03:01:36;;;;;;;;;;;5.00;1.00;;;;;;5037449;28;19932;-82
2022/01/31 03:04:02;;;;;;;;;;;5.00;1.00;;;;;;5038808;28;19920;-80
2022/01/31 03:06:28;;;;;;;;;;;5.00;1.00;;;;;;5037189;28;19913;-82
2022/01/31 03:08:53;;;;;;;;;;;5.00;1.00;;;;;;5042276;28;19913;-81
2022/01/31 03:11:18;;;;;;;;;;;5.00;1.00;;;;;;5050765;28;19952;-82
2022/01/31 03:13:44;;;;;;;;;;;4.90;1.00;;;;;;5038731;28;19973;-81
2022/01/31 03:16:09;;;;;;;;;;;4.90;1.00;;;;;;5040965;28;19913;-81
2022/01/31 03:18:35;;;;;;;;;;;4.90;1.00;;;;;;5038175;28;20081;-82
2022/01/31 03:21:00;;;;;;;;;;;4.90;1.00;;;;;;5039464;28;19913;-82
2022/01/31 03:23:26;;;;;;;;;;;4.90;1.00;;;;;;5037899;28;19928;-84
2022/01/31 03:25:51;;;;;;;;;;;4.90;1.00;;;;;;5039370;28;19917;-82
2022/01/31 03:28:17;;;;;;;;;;;4.90;1.00;;;;;;5039612;28;19984;-82
2022/01/31 03:30:42;;;;;;;;;;;5.00;1.00;;;;;;5038732;28;19913;-82
2022/01/31 03:33:08;;;;;;;;;;;5.00;1.00;;;;;;5035233;28;19929;-81
2022/01/31 03:35:33;;;;;;;;;;;5.00;1.00;;;;;;5039042;28;19917;-81
2022/01/31 03:37:59;;;;;;;;;;;5.00;1.00;;;;;;5037159;28;19919;-81
2022/01/31 03:40:24;;;;;;;;;;;5.00;1.00;;;;;;5040164;28;19920;-81
2022/01/31 03:42:50;;;;;;;;;;;5.10;1.00;;;;;;5036362;28;20039;-81
2022/01/31 03:45:15;;;;;;;;;;;5.10;1.00;;;;;;5036096;28;19928;-82
2022/01/31 03:47:45;;;;;;;;;;;5.20;1.00;;;;;;5034471;28;19948;-82
2022/01/31 03:50:11;;;;;;;;;;;5.20;1.00;;;;;;5036066;28;19913;-82
2022/01/31 03:52:37;;;;;;;;;;;5.20;1.00;;;;;;5034344;28;19948;-81
2022/01/31 03:55:02;;;;;;;;;;;5.20;1.00;;;;;;5034821;28;19924;-81
2022/01/31 03:57:29;;;;;;;;;;;5.30;1.00;;;;;;5040312;28;19917;-82
2022/01/31 03:59:54;;;;;;;;;;;5.30;1.00;;;;;;5037641;28;19921;-81
2022/01/31 04:02:20;;;;;;;;;;;5.30;1.00;;;;;;5038614;28;19913;-81
2022/01/31 04:04:45;;;;;;;;;;;5.30;1.00;;;;;;5039439;28;19913;-82
2022/01/31 04:07:11;;;;;;;;;;;5.30;1.00;;;;;;5034643;28;19913;-81
2022/01/31 04:09:36;;;;;;;;;;;5.40;1.00;;;;;;5036857;28;19959;-81
2022/01/31 04:12:02;;;;;;;;;;;5.40;1.00;;;;;;5033774;28;19941;-81
2022/01/31 04:14:27;;;;;;;;;;;5.40;1.00;;;;;;5035391;28;19971;-81
2022/01/31 04:16:54;;;;;;;;;;;5.40;1.00;;;;;;5038115;28;20431;-81
2022/01/31 04:19:20;;;;;;;;;;;5.50;1.00;;;;;;5043242;28;19993;-83
2022/01/31 04:21:46;;;;;;;;;;;5.50;1.00;;;;;;5056237;28;19945;-82
2022/01/31 04:24:18;;;;;;;;;;;5.60;1.00;;;;;;5039742;28;19916;-81
2022/01/31 04:26:55;;;;;;;;;;;5.60;1.00;;;;;;5031649;28;19939;-82
2022/01/31 04:29:20;;;;;;;;;;;5.60;1.00;;;;;;5031381;28;20289;-82
2022/01/31 04:31:49;;;;;;;;;;;5.70;1.00;;;;;;5032577;28;19924;-81
2022/01/31 04:34:14;;;;;;;;;;;5.70;1.00;;;;;;5032786;28;19913;-81
2022/01/31 04:36:40;;;;;;;;;;;5.80;1.00;;;;;;5041063;28;20405;-81
2022/01/31 04:39:05;;;;;;;;;;;5.80;1.00;;;;;;5028531;28;19971;-83
2022/01/31 04:41:31;;;;;;;;;;;5.80;1.00;;;;;;5030751;28;19919;-81
2022/01/31 04:44:01;;;;;;;;;;;5.80;1.00;;;;;;5044527;28;19972;-81
2022/01/31 04:46:27;;;;;;;;;;;5.90;1.00;;;;;;5036357;28;20289;-82
2022/01/31 04:48:53;;;;;;;;;;;5.90;1.00;;;;;;5034177;28;19913;-82
2022/01/31 04:51:18;;;;;;;;;;;5.90;1.00;;;;;;5034160;28;20003;-81
2022/01/31 04:53:44;;;;;;;;;;;6.00;1.00;;;;;;5036657;28;20393;-82
2022/01/31 04:56:09;;;;;;;;;;;6.00;1.00;;;;;;5037966;28;19913;-81
2022/01/31 04:58:35;;;;;;;;;;;6.00;1.00;;;;;;5029590;28;19913;-81
2022/01/31 05:01:00;;;;;;;;;;;6.00;1.00;;;;;;5032699;28;19937;-81
2022/01/31 05:03:26;;;;;;;;;;;6.00;1.00;;;;;;5038120;28;19917;-80
2022/01/31 05:05:52;;;;;;;;;;;6.10;1.00;;;;;;5037635;28;19913;-81
2022/01/31 05:08:20;;;;;;;;;;;6.10;1.00;;;;;;5036791;28;19921;-81
2022/01/31 05:10:48;;;;;;;;;;;6.10;1.00;;;;;;5034767;28;19913;-81
2022/01/31 05:13:15;;;;;;;;;;;6.20;1.00;;;;;;5033122;28;19921;-82
2022/01/31 05:15:41;;;;;;;;;;;6.20;1.00;;;;;;5038658;28;19948;-82
2022/01/31 05:18:06;;;;;;;;;;;6.20;1.00;;;;;;5037885;28;19913;-81
2022/01/31 05:20:32;;;;;;;;;;;6.20;1.00;;;;;;5035284;28;20425;-81
2022/01/31 05:22:57;;;;;;;;;;;6.30;1.00;;;;;;5038733;28;19917;-82
2022/01/31 05:25:23;;;;;;;;;;;6.30;1.00;;;;;;5034657;28;19917;-82
2022/01/31 05:27:48;;;;;;;;;;;6.30;1.00;;;;;;5043310;28;19935;-82
2022/01/31 05:30:16;;;;;;;;;;;6.30;1.00;;;;;;5043559;28;19913;-81
2022/01/31 05:32:42;;;;;;;;;;;6.30;1.00;;;;;;5038586;28;19917;-81
2022/01/31 05:35:07;;;;;;;;;;;6.30;1.00;;;;;;5034139;28;19913;-80
2022/01/31 05:37:34;;;;;;;;;;;6.30;1.00;;;;;;5035395;28;19928;-81
2022/01/31 05:40:00;;;;;;;;;;;6.40;1.00;;;;;;5030760;28;19936;-82
2022/01/31 05:42:25;;;;;;;;;;;6.40;1.00;;;;;;5034128;28;19909;-82
2022/01/31 05:44:50;;;;;;;;;;;6.40;99.90;;;;;;5030118;28;19948;-82
2022/01/31 05:47:16;;;;;;;;;;;6.40;99.90;;;;;;5028248;28;19920;-82
2022/01/31 05:49:42;;;;;;;;;;;6.40;99.90;;;;;;5034424;28;19920;-82
2022/01/31 05:52:08;;;;;;;;;;;6.40;99.90;;;;;;5030396;28;19921;-81
2022/01/31 05:54:35;;;;;;;;;;;6.40;99.90;;;;;;5036329;28;20435;-81
2022/01/31 05:57:01;;;;;;;;;;;6.50;99.90;;;;;;5032416;28;19913;-81
2022/01/31 05:59:26;;;;;;;;;;;6.50;1.00;;;;;;5033381;28;20003;-82
2022/01/31 06:01:52;;;;;;;;;;;6.50;99.90;;;;;;5031575;28;19920;-81
2022/01/31 06:04:18;;;;;;;;;;;6.50;1.00;;;;;;5030456;28;20095;-81
2022/01/31 06:06:43;;;;;;;;;;;6.50;1.00;;;;;;5032770;28;20365;-81
2022/01/31 06:09:09;;;;;;;;;;;6.50;99.90;;;;;;5033145;28;19913;-82
2022/01/31 06:11:34;;;;;;;;;;;6.50;99.90;;;;;;5033331;28;19917;-81
2022/01/31 06:14:03;;;;;;;;;;;6.50;1.00;;;;;;5030245;28;19914;-79
2022/01/31 06:16:29;;;;;;;;;;;6.50;1.00;;;;;;5029277;28;21549;-81
2022/01/31 06:18:55;;;;;;;;;;;6.50;1.00;;;;;;5033203;28;19975;-82
2022/01/31 06:21:20;;;;;;;;;;;6.50;1.00;;;;;;5040277;28;19913;-82
2022/01/31 06:23:46;;;;;;;;;;;6.50;1.00;;;;;;5035558;28;19955;-80
2022/01/31 06:26:12;;;;;;;;;;;6.50;1.00;;;;;;5038277;28;19913;-80
2022/01/31 06:28:37;;;;;;;;;;;6.50;1.00;;;;;;5037796;28;19913;-81
2022/01/31 06:31:03;;;;;;;;;;;6.50;1.00;;;;;;5032256;28;19921;-81
2022/01/31 06:33:28;;;;;;;;;;;6.50;1.00;;;;;;5031267;28;19941;-81
2022/01/31 06:35:54;;;;;;;;;;;6.50;1.00;;;;;;5042185;28;20282;-82
2022/01/31 06:38:21;;;;;;;;;;;6.50;1.00;;;;;;5035969;28;20399;-81
2022/01/31 06:40:47;;;;;;;;;;;6.40;1.00;;;;;;5033686;28;19948;-81
2022/01/31 06:43:12;;;;;;;;;;;6.40;1.00;;;;;;5035121;28;19921;-81
2022/01/31 06:45:38;;;;;;;;;;;6.40;1.00;;;;;;5041613;28;19923;-81
2022/01/31 06:48:03;;;;;;;;;;;6.40;1.00;;;;;;5034840;28;19920;-83
2022/01/31 06:50:29;;;;;;;;;;;6.40;15.00;;;;;;5047354;28;19913;-84
2022/01/31 06:52:56;;;;;;;;;;;6.50;1.00;;;;;;5032323;28;19918;-84
2022/01/31 06:55:22;;;;;;;;;;;6.50;8.00;;;;;;5046974;28;19904;-84
2022/01/31 06:57:48;;;;;;;;;;;6.40;99.90;;;;;;5050185;28;20005;-84
2022/01/31 07:00:15;;;;;;;;;;;6.40;99.90;;;;;;5046741;28;19913;-85
2022/01/31 07:02:41;;;;;;;;;;;6.40;1.00;;;;;;5043607;28;19976;-84
2022/01/31 07:05:07;;;;;;;;;;;6.20;1.00;;;;;;5045858;28;19917;-83
2022/01/31 07:07:32;;;;;;;;;;;6.20;99.90;;;;;;5041934;28;20390;-83
2022/01/31 07:10:01;;;;;;;;;;;6.10;1.00;;;;;;5035357;28;19914;-83
2022/01/31 07:12:32;;;;;;;;;;;6.00;99.90;;;;;;5039971;28;19963;-83
2022/01/31 07:14:57;;;;;;;;;;;6.00;99.90;;;;;;5035620;28;19920;-83
2022/01/31 07:17:23;;;;;;;;;;;5.80;99.90;;;;;;5031150;28;19913;-84
2022/01/31 07:19:48;;;;;;;;;;;5.70;1.00;;;;;;5035053;28;19921;-84
2022/01/31 07:22:15;;;;;;;;;;;5.70;1.00;;;;;;5039011;28;19960;-83
2022/01/31 07:24:51;;;;;;;;;;;5.60;1.00;;;;;;5038696;28;19913;-85
2022/01/31 07:27:17;;;;;;;;;;;5.60;1.00;;;;;;5042134;28;20336;-84
2022/01/31 07:29:45;;;;;;;;;;;5.70;1.00;;;;;;5038106;28;19917;-85
2022/01/31 07:32:11;;;;;;;;;;;5.70;1.00;;;;;;5034991;28;19917;-83
2022/01/31 07:34:38;;;;;;;;;;;5.70;1.00;;;;;;5040920;28;20016;-83
2022/01/31 07:37:03;;;;;;;;;;;5.70;1.00;;;;;;5040196;28;19920;-85
2022/01/31 07:39:29;;;;;;;;;;;5.70;99.90;;;;;;5032212;28;19914;-80
2022/01/31 07:41:54;;;;;;;;;;;5.70;99.90;;;;;;5039560;28;19913;-80
2022/01/31 07:44:20;;;;;;;;;;;5.80;99.90;;;;;;5050685;28;21877;-80
2022/01/31 07:46:49;;;;;;;;;;;5.80;99.90;;;;;;5038698;28;20132;-81
2022/01/31 07:49:14;;;;;;;;;;;5.80;45.10;;;;;;5036465;28;20386;-81
2022/01/31 07:51:41;;;;;;;;;;;5.80;1.00;;;;;;5033137;28;19917;-81
2022/01/31 07:54:07;;;;;;;;;;;5.90;1.00;;;;;;5031035;28;19940;-81
2022/01/31 07:56:32;;;;;;;;;;;5.90;1.00;;;;;;5037382;28;19920;-81
2022/01/31 07:58:58;;;;;;;;;;;5.90;1.00;;;;;;5029829;28;19918;-81
2022/01/31 08:01:26;;;;;;;;;;;5.80;99.90;;;;;;5040538;28;20284;-81
2022/01/31 08:03:52;;;;;;;;;;;5.80;99.90;;;;;;5042378;28;20340;-81
2022/01/31 08:06:17;;;;;;;;;;;5.90;99.90;;;;;;5042847;28;19979;-81
2022/01/31 08:08:43;;;;;;;;;;;5.90;1.00;;;;;;5041059;28;19948;-81
2022/01/31 08:11:09;;;;;;;;;;;5.90;1.00;;;;;;5039562;28;19913;-81
2022/01/31 08:13:34;;;;;;;;;;;5.90;99.90;;;;;;5035171;28;20296;-82
2022/01/31 08:16:09;;;;;;;;;;;5.90;99.90;;;;;;5039148;28;19913;-81
2022/01/31 08:18:37;;;;;;;;;;;5.90;99.90;;;;;;5031025;28;19955;-80
2022/01/31 08:21:03;;;;;;;;;;;5.80;99.90;;;;;;5030676;28;19914;-81
2022/01/31 08:23:29;;;;;;;;;;;5.90;1.00;;;;;;5030810;28;19913;-80
2022/01/31 08:25:55;;;;;;;;;;;5.90;1.00;;;;;;5038698;28;19944;-81
2022/01/31 08:28:30;;;;;;;;;;;5.90;1.00;;;;;;5040884;28;19921;-81
2022/01/31 08:31:02;;;;;;;;;;;5.90;1.00;;;;;;5037037;28;19920;-81
2022/01/31 08:36:04;;;;;;;;;;;5.80;1.00;;;;;;5033962;28;19923;-81
2022/01/31 08:38:30;;;;;;;;;;;5.80;7.00;;;;;;5035608;28;20005;-84
2022/01/31 08:40:55;;;;;;;;;;;5.80;42.10;;;;;;5037983;28;19931;-85
2022/01/31 08:43:21;;;;;;;;;;;5.80;99.90;;;;;;5042710;28;19967;-85
2022/01/31 08:45:48;;;;;;;;;;;5.80;99.90;;;;;;5034932;28;19968;-84
2022/01/31 08:48:13;;;;;;;;;;;5.70;99.90;;;;;;5033975;28;19936;-85
2022/01/31 08:50:39;;;;;;;;;;;5.70;99.90;;;;;;5033842;28;19972;-84
2022/01/31 08:53:05;;;;;;;;;;;5.60;99.90;;;;;;5029930;28;20069;-85
2022/01/31 08:55:30;;;;;;;;;;;5.60;1.00;;;;;;5036721;28;19932;-84
2022/01/31 08:57:57;;;;;;;;;;;5.50;99.90;;;;;;5036269;28;20301;-85
2022/01/31 09:00:33;;;;;;;;;;;5.50;1.00;;;;;;5039376;28;19921;-84
2022/01/31 09:03:18;;;;;;;;;;;5.50;99.90;;;;;;5028567;28;20405;-84
2022/01/31 09:05:43;;;;;;;;;;;5.60;1.00;;;;;;5032414;28;19921;-84
2022/01/31 09:08:09;;;;;;;;;;;5.60;1.00;;;;;;5034907;28;19913;-84
2022/01/31 09:10:34;;;;;;;;;;;5.70;1.00;;;;;;5031998;28;20378;-84
2022/01/31 09:13:00;;;;;;;;;;;5.70;99.90;;;;;;5035560;28;19927;-83
2022/01/31 09:15:26;;;;;;;;;;;5.70;99.90;;;;;;5035402;28;19921;-83
2022/01/31 09:17:51;;;;;;;;;;;5.70;99.90;;;;;;5029493;28;19913;-84
2022/01/31 09:20:17;;;;;;;;;;;5.70;99.90;;;;;;5028982;28;20147;-84
2022/01/31 09:22:43;;;;;;;;;;;5.60;99.90;;;;;;5029578;28;20341;-83
2022/01/31 09:25:14;;;;;;;;;;;5.60;99.90;;;;;;5027763;28;19913;-83
2022/01/31 09:27:40;;;;;;;;;;;5.60;99.90;;;;;;5030275;28;19917;-83
2022/01/31 09:30:06;;;;;;;;;;;5.60;99.90;;;;;;5033830;28;19919;-83
2022/01/31 09:32:31;;;;;;;;;;;5.60;1.00;;;;;;5028002;28;19925;-83
2022/01/31 09:34:57;;;;;;;;;;;5.60;99.90;;;;;;5023117;28;19917;-83
2022/01/31 09:37:23;;;;;;;;;;;5.60;99.90;;;;;;5024479;28;19933;-84
2022/01/31 09:39:48;;;;;;;;;;;5.60;1.00;;;;;;5025985;28;19913;-84
2022/01/31 09:42:22;;;;;;;;;;;5.60;1.00;;;;;;5030720;28;19924;-83
2022/01/31 09:47:22;;;;;;;;;;;5.60;99.90;;;;;;5036376;28;19913;-83
2022/01/31 09:49:48;;;;;;;;;;;5.70;99.90;;;;;;5030652;28;20425;-83
2022/01/31 09:52:14;;;;;;;;;;;5.70;99.90;;;;;;5031021;28;19951;-83
2022/01/31 09:54:39;;;;;;;;;;;5.70;99.90;;;;;;5027589;28;19917;-83
2022/01/31 09:57:05;;;;;;;;;;;5.70;99.90;;;;;;5030579;28;19920;-83
2022/01/31 09:59:31;;;;;;;;;;;5.60;99.90;;;;;;5028186;28;19910;-83
2022/01/31 10:01:57;;;;;;;;;;;5.60;99.90;;;;;;5038761;28;19960;-83
2022/01/31 10:04:24;;;;;;;;;;;5.60;99.90;;;;;;5034866;28;19914;-83
2022/01/31 10:06:51;;;;;;;;;;;5.50;99.90;;;;;;5028535;28;19920;-83
2022/01/31 10:09:21;;;;;;;;;;;5.60;99.90;;;;;;5039718;28;20266;-83
2022/01/31 10:11:51;;;;;;;;;;;5.60;1.00;;;;;;5039808;28;19924;-83
2022/01/31 10:17:20;;;;;;;;;;;5.70;99.90;;;;;;5039636;28;20445;-83
2022/01/31 10:19:46;;;;;;;;;;;5.70;99.90;;;;;;5019360;28;19933;-82
2022/01/31 10:22:13;;;;;;;;;;;5.80;99.90;;;;;;5038575;28;19920;-84
2022/01/31 10:24:39;;;;;;;;;;;5.80;99.90;;;;;;5039070;28;19913;-83
2022/01/31 10:27:08;;;;;;;;;;;5.80;99.90;;;;;;5039178;28;19913;-83
2022/01/31 10:29:33;;;;;;;;;;;5.80;99.90;;;;;;5031100;28;19985;-84
2022/01/31 10:32:01;;;;;;;;;;;5.90;99.90;;;;;;5035158;28;19963;-83
2022/01/31 10:34:28;;;;;;;;;;;5.90;99.90;;;;;;5036703;28;19917;-83
2022/01/31 10:36:54;;;;;;;;;;;5.90;99.90;;;;;;5033359;28;19913;-82
2022/01/31 10:45:22;;;;;;;;;;;5.80;1.00;;;;;;5036802;28;19927;-82
2022/01/31 10:50:56;;;;;;;;;;;5.60;1.00;;;;;;5031519;28;19919;-83
2022/01/31 10:53:22;;;;;;;;;;;5.60;1.00;;;;;;5032175;28;19917;-82
2022/01/31 10:55:54;;;;;;;;;;;5.50;1.00;;;;;;5027018;28;19923;-83
2022/01/31 10:58:19;;;;;;;;;;;5.60;1.00;;;;;;5031257;28;19933;-83
2022/01/31 11:00:45;;;;;;;;;;;5.60;1.00;;;;;;5037135;28;20593;-83
2022/01/31 11:03:29;;;;;;;;;;;5.60;1.00;;;;;;5041153;28;19939;-84
2022/01/31 11:05:55;;;;;;;;;;;5.60;1.00;;;;;;5034423;28;19913;-84
2022/01/31 11:08:21;;;;;;;;;;;5.70;1.00;;;;;;5032355;28;20277;-83
2022/01/31 11:10:46;;;;;;;;;;;5.80;1.00;;;;;;5040190;28;19927;-83
2022/01/31 11:13:12;;;;;;;;;;;5.80;1.00;;;;;;5032642;28;19925;-83
2022/01/31 11:15:37;;;;;;;;;;;5.80;1.00;;;;;;5034707;28;19917;-83
2022/01/31 11:18:06;;;;;;;;;;;5.80;1.00;;;;;;5039033;28;19913;-83
2022/01/31 11:20:31;;;;;;;;;;;5.80;1.00;;;;;;5035345;28;19920;-83
2022/01/31 11:22:58;;;;;;;;;;;5.70;1.00;;;;;;5040172;28;19913;-82
2022/01/31 11:25:28;;;;;;;;;;;5.80;1.00;;;;;;5039137;28;19921;-83
2022/01/31 11:27:58;;;;;;;;;;;5.80;1.00;;;;;;5038849;28;19913;-83
2022/01/31 11:30:23;;;;;;;;;;;5.80;1.00;;;;;;5037588;28;19940;-82
2022/01/31 11:32:49;;;;;;;;;;;5.90;1.00;;;;;;5029229;28;19959;-82
2022/01/31 11:35:14;;;;;;;;;;;5.90;99.90;;;;;;5035241;28;19913;-82
2022/01/31 11:37:40;;;;;;;;;;;5.90;99.90;;;;;;5037220;28;19969;-83
2022/01/31 11:40:08;;;;;;;;;;;5.80;99.90;;;;;;5039025;28;19971;-83
2022/01/31 11:42:34;;;;;;;;;;;5.80;99.90;;;;;;5042670;28;19989;-83
2022/01/31 11:45:03;;;;;;;;;;;5.80;99.90;;;;;;5041183;28;19917;-83
2022/01/31 11:47:29;;;;;;;;;;;5.80;99.90;;;;;;5035713;28;19913;-83
2022/01/31 11:49:56;;;;;;;;;;;5.80;99.90;;;;;;5038751;28;19913;-82
2022/01/31 11:52:23;;;;;;;;;;;5.80;99.90;;;;;;5035850;28;19952;-82
2022/01/31 11:54:48;;;;;;;;;;;5.80;99.90;;;;;;5052243;28;19917;-82
2022/01/31 11:57:15;;;;;;;;;;;5.70;99.90;;;;;;5038965;28;19920;-82
2022/01/31 11:59:41;;;;;;;;;;;5.70;99.90;;;;;;5041788;28;20324;-82
2022/01/31 12:02:06;;;;;;;;;;;5.80;99.90;;;;;;5040204;28;19913;-82
2022/01/31 12:04:32;;;;;;;;;;;5.70;99.90;;;;;;5036953;28;20388;-82
2022/01/31 12:06:58;;;;;;;;;;;5.80;99.90;;;;;;5037405;28;19917;-81
2022/01/31 12:09:27;;;;;;;;;;;5.80;99.90;;;;;;5037848;28;19920;-82
2022/01/31 12:11:57;;;;;;;;;;;5.80;99.90;;;;;;5038810;28;19932;-82
2022/01/31 12:14:26;;;;;;;;;;;5.70;99.90;;;;;;5037676;28;19936;-81
2022/01/31 12:17:13;;;;;;;;;;;5.70;99.90;;;;;;5042809;28;19909;-82
2022/01/31 12:22:28;;;;;;;;;;;5.70;99.90;;;;;;5038762;28;19919;-82
2022/01/31 12:24:54;;;;;;;;;;;5.70;1.00;;;;;;5056665;28;19917;-82
2022/01/31 12:27:27;;;;;;;;;;;5.60;1.00;;;;;;5039857;28;19913;-84
2022/01/31 12:29:56;;;;;;;;;;;5.70;1.00;;;;;;5037347;28;19980;-82
2022/01/31 12:32:22;;;;;;;;;;;5.70;1.00;;;;;;5041031;28;19932;-82
2022/01/31 12:35:06;;;;;;;;;;;5.70;1.00;;;;;;5047603;28;19913;-82
2022/01/31 12:37:35;;;;;;;;;;;5.70;1.00;;;;;;5033947;28;19917;-83
2022/01/31 12:40:03;;;;;;;;;;;5.70;1.00;;;;;;5040197;28;19913;-82
2022/01/31 12:45:31;;;;;;;;;;;5.70;1.00;;;;;;5044479;28;19936;-83
2022/01/31 12:48:15;;;;;;;;;;;5.70;1.00;;;;;;5038264;28;20035;-81
2022/01/31 12:50:50;;;;;;;;;;;5.70;1.00;;;;;;5037122;28;19913;-82
2022/01/31 12:53:22;;;;;;;;;;;5.80;1.00;;;;;;5029576;28;19973;-81
2022/01/31 12:56:00;;;;;;;;;;;5.80;1.00;;;;;;5040591;28;19962;-80
2022/01/31 12:58:33;;;;;;;;;;;5.80;1.00;;;;;;5044348;28;19919;-80
2022/01/31 13:01:07;;;;;;;;;;;5.70;1.00;;;;;;5035055;28;19953;-79
2022/01/31 13:03:34;;;;;;;;;;;5.70;1.00;;;;;;5036068;28;19926;-83
2022/01/31 13:06:00;;;;;;;;;;;5.70;1.00;;;;;;5032249;28;19921;-81
2022/01/31 13:08:25;;;;;;;;;;;5.70;1.00;;;;;;5035467;28;19914;-81
2022/01/31 13:10:55;;;;;;;;;;;5.70;1.00;;;;;;5033474;28;19913;-81
2022/01/31 13:13:34;;;;;;;;;;;5.70;1.00;;;;;;5039869;28;19959;-81
2022/01/31 13:16:07;;;;;;;;;;;5.70;1.00;;;;;;5038817;28;20008;-82
2022/01/31 13:18:32;;;;;;;;;;;5.70;1.00;;;;;;5033167;28;20341;-82
2022/01/31 13:20:59;;;;;;;;;;;5.70;1.00;;;;;;5034428;28;19925;-81
2022/01/31 13:23:25;;;;;;;;;;;5.70;1.00;;;;;;5044995;28;20298;-81
2022/01/31 13:25:58;;;;;;;;;;;5.70;1.00;;;;;;5043712;28;19910;-82
2022/01/31 13:28:23;;;;;;;;;;;5.60;1.00;;;;;;5043275;28;19913;-81
2022/01/31 13:30:49;;;;;;;;;;;5.60;1.00;;;;;;5045410;28;19913;-81
2022/01/31 13:33:14;;;;;;;;;;;5.50;1.00;;;;;;5049337;28;19940;-81
2022/01/31 13:35:40;;;;;;;;;;;5.50;1.00;;;;;;5046775;28;19925;-81
2022/01/31 13:38:08;;;;;;;;;;;5.50;1.00;;;;;;5047565;28;19920;-81
2022/01/31 13:40:35;;;;;;;;;;;5.50;1.00;;;;;;5038808;28;20012;-81
2022/01/31 13:43:09;;;;;;;;;;;5.60;1.00;;;;;;5040173;28;19917;-81
2022/01/31 13:45:41;;;;;;;;;;;5.60;1.00;;;;;;5042964;28;19920;-81
2022/01/31 13:48:13;;;;;;;;;;;5.50;1.00;;;;;;5043728;28;19968;-81
2022/01/31 13:50:45;;;;;;;;;;;5.50;1.00;;;;;;5041256;28;19920;-81
2022/01/31 13:53:10;;;;;;;;;;;5.50;1.00;;;;;;5039501;28;20016;-82
2022/01/31 13:55:43;;;;;;;;;;;5.50;1.00;;;;;;5047964;28;19917;-80
2022/01/31 13:58:09;;;;;;;;;;;5.50;1.00;;;;;;5045270;28;19952;-81
2022/01/31 14:00:36;;;;;;;;;;;5.50;1.00;;;;;;5047516;28;19913;-82
2022/01/31 14:03:20;;;;;;;;;;;5.50;1.00;;;;;;5038329;28;19980;-82
2022/01/31 14:05:50;;;;;;;;;;;5.50;1.00;;;;;;5039749;28;19919;-81
2022/01/31 14:08:16;;;;;;;;;;;5.40;1.00;;;;;;5040135;28;19987;-81
2022/01/31 14:10:44;;;;;;;;;;;5.40;1.00;;;;;;5037534;28;20289;-81
2022/01/31 14:13:11;;;;;;;;;;;5.40;1.00;;;;;;5039838;28;19995;-81
2022/01/31 14:15:46;;;;;;;;;;;5.40;1.00;;;;;;5043835;28;19936;-81
2022/01/31 14:18:16;;;;;;;;;;;5.40;1.00;;;;;;5041349;28;20060;-81
2022/01/31 14:20:42;;;;;;;;;;;5.40;1.00;;;;;;5039721;28;20013;-82
2022/01/31 14:23:10;;;;;;;;;;;5.40;1.00;;;;;;5036857;28;19996;-81
2022/01/31 14:25:37;;;;;;;;;;;5.40;1.00;;;;;;5050087;28;20362;-80
2022/01/31 14:28:02;;;;;;;;;;;5.40;1.00;;;;;;5036238;28;19967;-81
2022/01/31 14:30:28;;;;;;;;;;;5.40;1.00;;;;;;5028603;28;19914;-81
2022/01/31 14:33:05;;;;;;;;;;;5.40;1.00;;;;;;5035640;28;19917;-81
2022/01/31 14:35:32;;;;;;;;;;;5.40;1.00;;;;;;5033080;28;19984;-81
2022/01/31 14:37:58;;;;;;;;;;;5.40;1.00;;;;;;5033062;28;19923;-81
2022/01/31 14:47:11;;;;;;;;;;;5.40;1.00;;;;;;5039519;28;19999;-81
2022/01/31 14:48:41;;;;;;;;;;;5.40;1.00;;;;;;5033128;28;20336;-81
2022/01/31 14:51:07;;;;;;;;;;;5.40;1.00;;;;;;5040878;28;19981;-81
2022/01/31 14:53:32;;;;;;;;;;;5.30;1.00;;;;;;5039667;28;19917;-81
2022/01/31 14:55:58;;;;;;;;;;;5.30;1.00;;;;;;5035564;28;19921;-81
2022/01/31 14:58:23;;;;;;;;;;;5.40;1.00;;;;;;5040295;28;19917;-81
2022/01/31 15:00:49;;;;;;;;;;;5.30;1.00;;;;;;5033959;28;19979;-80
2022/01/31 15:03:15;;;;;;;;;;;5.40;1.00;;;;;;5031189;28;19920;-80
2022/01/31 15:05:40;;;;;;;;;;;5.40;1.00;;;;;;5035958;28;19967;-80